createdAt,value
2018-01-22T00:01:47.718Z,5.00
2018-01-22T00:04:15.904Z,5.10
2018-01-22T00:06:44.113Z,5.63
2018-01-22T00:09:12.210Z,5.20
2018-01-22T00:11:40.315Z,4.90
2018-01-22T00:14:08.398Z,4.33
2018-01-22T00:16:36.519Z,4.50
2018-01-22T00:19:04.620Z,4.17
2018-01-22T00:21:33.355Z,4.00
2018-01-22T00:24:01.465Z,4.00
2018-01-22T00:26:29.549Z,3.37
2018-01-22T00:28:57.637Z,3.93
2018-01-22T00:31:29.030Z,3.70
2018-01-22T00:33:57.122Z,2.93
2018-01-22T00:36:25.213Z,4.03
2018-01-22T00:38:53.314Z,3.90
2018-01-22T00:41:21.419Z,3.70
2018-01-22T00:43:49.519Z,3.80
2018-01-22T00:46:17.631Z,4.57
2018-01-22T00:48:45.728Z,3.90
2018-01-22T00:51:13.827Z,4.47
2018-01-22T00:53:41.930Z,3.57
2018-01-22T00:56:10.029Z,3.93
2018-01-22T00:58:46.398Z,4.57
2018-01-22T01:01:14.508Z,4.13
2018-01-22T01:03:42.602Z,4.80
2018-01-22T01:06:10.719Z,5.07
2018-01-22T01:08:38.816Z,5.37
2018-01-22T01:11:06.905Z,4.90
2018-01-22T01:13:35.016Z,5.60
2018-01-22T01:16:03.116Z,5.30
2018-01-22T01:18:32.231Z,5.30
2018-01-22T01:21:00.322Z,5.50
2018-01-22T01:23:28.428Z,5.60
2018-01-22T01:26:21.150Z,5.37
2018-01-22T01:28:49.247Z,4.97
2018-01-22T01:31:17.345Z,5.77
2018-01-22T01:33:45.443Z,5.13
2018-01-22T01:36:13.544Z,5.27
2018-01-22T01:38:41.637Z,5.63
2018-01-22T01:41:09.739Z,5.17
2018-01-22T01:43:37.826Z,4.50
2018-01-22T01:46:05.924Z,4.83
2018-01-22T01:48:34.021Z,4.37
2018-01-22T01:51:02.111Z,5.00
2018-01-22T01:53:30.235Z,5.03
2018-01-22T01:55:58.314Z,4.60
2018-01-22T01:58:26.413Z,4.83
2018-01-22T02:00:54.520Z,5.00
2018-01-22T02:03:22.616Z,4.70
2018-01-22T02:05:50.729Z,4.97
2018-01-22T02:08:18.805Z,5.10
2018-01-22T02:10:57.742Z,4.67
2018-01-22T02:13:25.848Z,4.80
2018-01-22T02:15:53.939Z,5.10
2018-01-22T02:18:22.030Z,4.63
2018-01-22T02:20:50.136Z,4.93
2018-01-22T02:23:18.218Z,4.70
2018-01-22T02:25:46.317Z,4.73
2018-01-22T02:28:14.411Z,4.87
2018-01-22T02:30:42.512Z,4.90
2018-01-22T02:33:10.622Z,4.93
2018-01-22T02:35:38.714Z,4.70
2018-01-22T02:38:06.802Z,4.63
2018-01-22T02:40:34.916Z,4.43
2018-01-22T02:43:03.010Z,4.57
2018-01-22T02:45:31.098Z,5.50
2018-01-22T02:47:59.208Z,5.30
2018-01-22T02:50:27.329Z,4.63
2018-01-22T02:52:55.410Z,4.83
2018-01-22T02:55:23.528Z,5.07
2018-01-22T02:57:51.765Z,5.03
2018-01-22T03:00:19.871Z,4.80
2018-01-22T03:02:47.980Z,4.73
2018-01-22T03:05:16.070Z,5.10
2018-01-22T03:07:44.157Z,4.67
2018-01-22T03:10:12.263Z,4.37
2018-01-22T03:12:40.353Z,4.57
2018-01-22T03:15:09.410Z,4.70
2018-01-22T03:17:37.493Z,4.50
2018-01-22T03:20:05.586Z,4.53
2018-01-22T03:22:33.700Z,4.77
2018-01-22T03:25:01.790Z,4.13
2018-01-22T03:27:36.130Z,4.63
2018-01-22T03:30:04.226Z,4.50
2018-01-22T03:32:32.325Z,3.73
2018-01-22T03:35:00.421Z,4.23
2018-01-22T03:37:28.515Z,4.37
2018-01-22T03:39:56.631Z,4.33
2018-01-22T03:42:24.727Z,3.97
2018-01-22T03:44:52.835Z,4.57
2018-01-22T03:50:15.845Z,3.73
2018-01-22T03:52:43.943Z,4.00
2018-01-22T03:55:12.034Z,4.23
2018-01-22T03:57:40.135Z,4.33
2018-01-22T04:00:08.224Z,4.23
2018-01-22T04:02:36.349Z,4.00
2018-01-22T04:05:04.454Z,3.93
2018-01-22T04:07:32.554Z,4.40
2018-01-22T04:10:00.709Z,4.50
2018-01-22T04:12:28.815Z,4.00
2018-01-22T04:14:56.991Z,4.00
2018-01-22T04:17:25.243Z,4.23
2018-01-22T04:19:53.334Z,4.03
2018-01-22T04:22:21.499Z,4.37
2018-01-22T04:24:49.581Z,3.87
2018-01-22T04:27:17.696Z,4.00
2018-01-22T04:29:45.777Z,3.93
2018-01-22T04:32:13.896Z,4.17
2018-01-22T04:34:41.992Z,3.80
2018-01-22T04:37:10.100Z,4.20
2018-01-22T04:39:38.196Z,4.30
2018-01-22T04:42:06.308Z,4.13
2018-01-22T04:44:34.411Z,4.30
2018-01-22T04:47:02.500Z,3.60
2018-01-22T04:49:30.694Z,4.27
2018-01-22T04:51:58.796Z,4.10
2018-01-22T04:54:26.897Z,3.93
2018-01-22T04:57:12.915Z,4.33
2018-01-22T04:59:41.029Z,4.43
2018-01-22T05:02:09.113Z,4.40
2018-01-22T05:04:37.219Z,4.40
2018-01-22T05:07:05.324Z,4.20
2018-01-22T05:09:33.435Z,4.43
2018-01-22T05:12:01.573Z,4.67
2018-01-22T05:14:29.644Z,5.47
2018-01-22T05:16:57.746Z,4.30
2018-01-22T05:19:25.852Z,4.40
2018-01-22T05:21:53.976Z,5.10
2018-01-22T05:24:22.087Z,4.27
2018-01-22T05:26:50.192Z,4.80
2018-01-22T05:29:18.299Z,4.33
2018-01-22T05:31:46.399Z,3.73
2018-01-22T05:34:14.506Z,3.33
2018-01-22T05:36:42.599Z,4.00
2018-01-22T05:39:10.703Z,4.43
2018-01-22T05:41:38.808Z,4.17
2018-01-22T05:44:06.898Z,4.17
2018-01-22T05:46:35.008Z,3.97
2018-01-22T05:49:03.090Z,3.93
2018-01-22T05:51:31.176Z,4.57
2018-01-22T05:54:06.214Z,4.13
2018-01-22T05:56:40.627Z,3.90
2018-01-22T05:59:08.718Z,4.10
2018-01-22T06:01:43.372Z,4.07
2018-01-22T06:04:11.482Z,4.20
2018-01-22T06:06:39.594Z,4.37
2018-01-22T06:09:07.759Z,4.13
2018-01-22T06:11:36.787Z,4.33
2018-01-22T06:14:04.886Z,3.93
2018-01-22T06:16:32.979Z,4.10
2018-01-22T06:19:01.072Z,4.20
2018-01-22T06:21:31.113Z,4.67
2018-01-22T06:23:59.228Z,5.30
2018-01-22T06:26:27.358Z,5.03
2018-01-22T06:28:55.468Z,4.53
2018-01-22T06:31:23.567Z,4.43
2018-01-22T06:33:55.167Z,4.57
2018-01-22T06:36:23.276Z,4.73
2018-01-22T06:38:51.361Z,4.63
2018-01-22T06:41:19.468Z,5.13
2018-01-22T06:43:47.571Z,4.40
2018-01-22T06:46:15.654Z,5.20
2018-01-22T06:48:43.763Z,5.23
2018-01-22T06:51:18.886Z,4.83
2018-01-22T06:53:54.148Z,5.70
2018-01-22T06:56:25.328Z,12.90
2018-01-22T06:58:53.421Z,6.67
2018-01-22T07:01:21.513Z,5.87
2018-01-22T07:03:49.628Z,6.60
2018-01-22T07:06:17.731Z,7.00
2018-01-22T07:08:45.813Z,7.13
2018-01-22T07:11:13.925Z,6.63
2018-01-22T07:13:43.946Z,6.73
2018-01-22T07:16:21.829Z,7.90
2018-01-22T07:18:50.845Z,7.70
2018-01-22T07:21:18.952Z,7.83
2018-01-22T07:23:47.063Z,9.10
2018-01-22T07:26:28.981Z,7.93
2018-01-22T07:28:58.089Z,8.30
2018-01-22T07:31:26.200Z,8.87
2018-01-22T07:33:54.318Z,9.73
2018-01-22T07:36:29.350Z,10.43
2018-01-22T07:38:57.449Z,10.47
2018-01-22T07:41:25.564Z,11.67
2018-01-22T07:43:53.684Z,11.90
2018-01-22T07:46:21.802Z,11.13
2018-01-22T07:48:49.916Z,12.17
2018-01-22T07:51:18.022Z,12.53
2018-01-22T07:53:46.141Z,12.43
2018-01-22T07:56:15.204Z,11.67
2018-01-22T07:58:43.309Z,13.07
2018-01-22T08:01:11.410Z,12.83
2018-01-22T08:03:39.516Z,12.63
2018-01-22T08:06:07.624Z,12.87
2018-01-22T08:08:35.745Z,13.37
2018-01-22T08:11:03.855Z,12.90
2018-01-22T08:13:31.980Z,13.07
2018-01-22T08:16:00.087Z,11.30
2018-01-22T08:18:28.189Z,14.00
2018-01-22T08:20:56.299Z,12.23
2018-01-22T08:23:24.397Z,14.43
2018-01-22T08:25:52.507Z,13.90
2018-01-22T08:28:20.608Z,13.83
2018-01-22T08:30:48.727Z,15.10
2018-01-22T08:33:16.840Z,16.60
2018-01-22T08:35:44.967Z,16.57
2018-01-22T08:38:13.070Z,14.63
2018-01-22T08:40:41.201Z,16.43
2018-01-22T08:43:09.306Z,16.20
2018-01-22T08:45:38.392Z,16.83
2018-01-22T08:48:06.522Z,18.73
2018-01-22T08:50:34.649Z,19.83
2018-01-22T08:53:08.663Z,17.27
2018-01-22T08:55:40.693Z,19.33
2018-01-22T08:58:08.819Z,20.17
2018-01-22T09:00:40.701Z,18.67
2018-01-22T09:03:08.840Z,16.43
2018-01-22T09:05:47.453Z,17.47
2018-01-22T09:08:15.569Z,18.33
2018-01-22T09:10:43.681Z,16.50
2018-01-22T09:13:15.429Z,17.93
2018-01-22T09:15:46.452Z,19.13
2018-01-22T09:18:14.581Z,19.13
2018-01-22T09:20:57.230Z,19.33
2018-01-22T09:23:25.343Z,18.73
2018-01-22T09:25:53.438Z,20.60
2018-01-22T09:28:26.773Z,19.87
2018-01-22T09:30:54.869Z,17.23
2018-01-22T09:33:22.985Z,18.43
2018-01-22T09:35:51.113Z,18.43
2018-01-22T09:38:19.219Z,17.97
2018-01-22T09:40:48.279Z,19.27
2018-01-22T09:43:16.398Z,19.10
2018-01-22T09:45:52.162Z,18.90
2018-01-22T09:48:20.275Z,21.30
2018-01-22T09:50:48.377Z,21.13
2018-01-22T09:53:16.509Z,20.73
2018-01-22T09:55:44.618Z,20.90
2018-01-22T09:58:25.957Z,20.10
2018-01-22T10:00:54.084Z,21.67
2018-01-22T10:03:22.186Z,19.67
2018-01-22T10:05:50.300Z,23.10
2018-01-22T10:08:18.401Z,23.67
2018-01-22T10:10:46.505Z,21.43
2018-01-22T10:13:14.619Z,21.70
2018-01-22T10:15:42.740Z,26.63
2018-01-22T10:18:10.852Z,26.60
2018-01-22T10:20:38.976Z,21.40
2018-01-22T10:23:07.102Z,23.17
2018-01-22T10:25:35.225Z,22.07
2018-01-22T10:28:08.761Z,21.43
2018-01-22T10:30:38.778Z,22.40
2018-01-22T10:33:06.873Z,21.30
2018-01-22T10:35:35.008Z,22.30
2018-01-22T10:38:03.106Z,23.43
2018-01-22T10:40:31.233Z,22.60
2018-01-22T10:42:59.333Z,23.40
2018-01-22T10:45:27.443Z,21.73
2018-01-22T10:47:55.555Z,18.27
2018-01-22T10:50:23.668Z,23.90
2018-01-22T10:52:51.796Z,21.87
2018-01-22T10:55:19.893Z,20.43
2018-01-22T10:57:51.258Z,21.33
2018-01-22T11:00:19.368Z,19.43
2018-01-22T11:02:47.458Z,23.47
2018-01-22T11:05:15.583Z,18.30
2018-01-22T11:07:43.678Z,18.40
2018-01-22T11:10:11.825Z,15.23
2018-01-22T11:12:39.939Z,19.03
2018-01-22T11:15:08.090Z,17.97
2018-01-22T11:17:36.195Z,15.17
2018-01-22T11:20:04.289Z,18.63
2018-01-22T11:22:36.557Z,18.50
2018-01-22T11:25:04.676Z,17.10
2018-01-22T11:27:32.783Z,17.70
2018-01-22T11:30:00.886Z,16.50
2018-01-22T11:32:34.689Z,12.03
2018-01-22T11:35:02.814Z,13.53
2018-01-22T11:37:43.533Z,13.97
2018-01-22T11:40:11.655Z,14.00
2018-01-22T11:42:43.169Z,14.10
2018-01-22T11:45:11.404Z,12.60
2018-01-22T11:47:39.647Z,10.80
2018-01-22T11:50:07.847Z,11.73
2018-01-22T11:52:35.945Z,12.93
2018-01-22T11:55:04.060Z,14.20
2018-01-22T11:57:32.175Z,15.20
2018-01-22T12:00:00.286Z,14.60
2018-01-22T12:02:28.401Z,15.80
2018-01-22T12:05:04.421Z,15.23
2018-01-22T12:07:32.532Z,15.17
2018-01-22T12:10:00.656Z,13.23
2018-01-22T12:12:28.776Z,16.10
2018-01-22T12:14:56.892Z,17.53
2018-01-22T12:17:25.018Z,20.23
2018-01-22T12:20:02.842Z,19.77
2018-01-22T12:22:36.959Z,20.97
2018-01-22T12:25:05.061Z,12.83
2018-01-22T12:27:33.189Z,10.43
2018-01-22T12:30:07.880Z,9.47
2018-01-22T12:32:35.996Z,9.70
2018-01-22T12:35:05.039Z,10.77
2018-01-22T12:37:33.167Z,9.27
2018-01-22T12:40:01.254Z,7.70
2018-01-22T12:42:29.367Z,8.37
2018-01-22T12:44:57.480Z,8.23
2018-01-22T12:47:32.153Z,7.93
2018-01-22T12:50:00.268Z,8.20
2018-01-22T12:52:28.383Z,7.43
2018-01-22T12:54:56.477Z,7.10
2018-01-22T12:57:24.592Z,11.10
2018-01-22T12:59:54.647Z,10.60
2018-01-22T13:02:22.760Z,13.07
2018-01-22T13:04:55.412Z,10.43
2018-01-22T13:07:23.510Z,10.80
2018-01-22T13:09:51.628Z,9.70
2018-01-22T13:12:19.723Z,6.60
2018-01-22T13:14:47.825Z,6.97
2018-01-22T13:17:15.927Z,7.50
2018-01-22T13:19:44.015Z,7.23
2018-01-22T13:22:12.128Z,6.70
2018-01-22T13:24:40.236Z,6.87
2018-01-22T13:27:10.304Z,7.97
2018-01-22T13:29:38.425Z,10.47
2018-01-22T13:32:10.039Z,12.57
2018-01-22T13:34:38.130Z,12.37
2018-01-22T13:37:17.898Z,9.83
2018-01-22T13:39:46.956Z,9.47
2018-01-22T13:42:15.057Z,9.13
2018-01-22T13:44:43.158Z,10.23
2018-01-22T13:47:11.283Z,9.53
2018-01-22T13:49:39.384Z,8.03
2018-01-22T13:52:07.477Z,7.37
2018-01-22T13:54:35.578Z,6.80
2018-01-22T13:57:03.701Z,6.67
2018-01-22T13:59:33.775Z,7.40
2018-01-22T14:02:01.879Z,6.93
2018-01-22T14:04:31.958Z,7.03
2018-01-22T14:07:00.081Z,7.07
2018-01-22T14:09:32.386Z,6.60
2018-01-22T14:12:00.485Z,6.93
2018-01-22T14:14:28.591Z,6.53
2018-01-22T14:16:56.727Z,7.90
2018-01-22T14:19:25.179Z,7.93
2018-01-22T14:21:53.277Z,8.60
2018-01-22T14:24:22.370Z,9.57
2018-01-22T14:26:50.476Z,8.90
2018-01-22T14:29:39.021Z,7.57
2018-01-22T14:32:07.110Z,7.57
2018-01-22T14:34:40.963Z,7.23
2018-01-22T14:37:10.974Z,7.47
2018-01-22T14:39:40.074Z,7.90
2018-01-22T14:42:08.200Z,7.43
2018-01-22T14:44:36.298Z,8.57
2018-01-22T14:47:04.408Z,11.27
2018-01-22T14:49:32.530Z,11.90
2018-01-22T14:52:01.684Z,14.93
2018-01-22T14:54:29.795Z,14.53
2018-01-22T14:56:59.865Z,14.73
2018-01-22T14:59:28.016Z,12.40
2018-01-22T15:01:56.107Z,11.00
2018-01-22T15:04:24.206Z,13.13
2018-01-22T15:06:52.301Z,14.00
2018-01-22T15:09:20.422Z,12.37
2018-01-22T15:11:48.532Z,11.30
2018-01-22T15:14:16.652Z,9.20
2018-01-22T15:16:44.756Z,9.77
2018-01-22T15:19:12.860Z,8.60
2018-01-22T15:21:40.958Z,8.67
2018-01-22T15:24:09.056Z,7.83
2018-01-22T15:26:37.158Z,7.10
2018-01-22T15:29:05.254Z,6.47
2018-01-22T15:31:33.354Z,6.77
2018-01-22T15:34:01.461Z,6.33
2018-01-22T15:36:29.553Z,6.23
2018-01-22T15:38:57.706Z,7.13
2018-01-22T15:41:25.818Z,7.23
2018-01-22T15:43:54.838Z,9.27
2018-01-22T15:46:22.947Z,8.90
2018-01-22T15:48:55.195Z,9.97
2018-01-22T15:51:23.322Z,8.80
2018-01-22T15:53:51.468Z,12.80
2018-01-22T15:56:19.560Z,11.00
2018-01-22T15:58:47.671Z,11.23
2018-01-22T16:01:15.773Z,9.50
2018-01-22T16:03:43.875Z,9.30
2018-01-22T16:06:11.978Z,8.80
2018-01-22T16:08:52.336Z,8.83
2018-01-22T16:11:20.464Z,9.33
2018-01-22T16:13:48.574Z,8.60
2018-01-22T16:16:16.666Z,8.63
2018-01-22T16:18:44.774Z,9.20
2018-01-22T16:21:12.861Z,8.23
2018-01-22T16:23:40.961Z,8.97
2018-01-22T16:26:09.068Z,8.63
2018-01-22T16:28:37.173Z,11.90
2018-01-22T16:31:05.291Z,11.60
2018-01-22T16:33:33.376Z,10.70
2018-01-22T16:36:01.478Z,8.70
2018-01-22T16:38:29.575Z,8.17
2018-01-22T16:40:57.696Z,8.40
2018-01-22T16:43:25.799Z,9.60
2018-01-22T16:45:53.920Z,10.20
2018-01-22T16:48:39.910Z,10.37
2018-01-22T16:51:08.938Z,9.43
2018-01-22T16:53:37.057Z,9.40
2018-01-22T16:56:16.308Z,9.37
2018-01-22T16:58:44.412Z,8.70
2018-01-22T17:01:12.524Z,11.03
2018-01-22T17:03:40.628Z,9.87
2018-01-22T17:06:08.721Z,8.13
2018-01-22T17:08:36.834Z,10.83
2018-01-22T17:11:04.933Z,10.33
2018-01-22T17:13:33.072Z,8.67
2018-01-22T17:16:01.196Z,9.23
2018-01-22T17:18:29.308Z,8.60
2018-01-22T17:20:57.402Z,8.73
2018-01-22T17:23:25.656Z,8.63
2018-01-22T17:26:06.277Z,7.77
2018-01-22T17:28:37.967Z,8.23
2018-01-22T17:31:06.066Z,8.13
2018-01-22T17:33:39.933Z,6.97
2018-01-22T17:36:08.050Z,7.30
2018-01-22T17:38:36.152Z,7.40
2018-01-22T17:41:27.830Z,6.80
2018-01-22T17:43:55.922Z,7.70
2018-01-22T17:46:27.677Z,7.67
2018-01-22T17:49:12.892Z,7.30
2018-01-22T17:51:44.494Z,8.10
2018-01-22T17:54:12.577Z,7.20
2018-01-22T17:56:51.032Z,7.47
2018-01-22T17:59:19.126Z,7.57
2018-01-22T18:01:49.164Z,7.57
2018-01-22T18:04:17.253Z,7.40
2018-01-22T18:06:45.342Z,9.20
2018-01-22T18:09:13.484Z,12.40
2018-01-22T18:11:41.607Z,15.87
2018-01-22T18:14:09.725Z,12.80
2018-01-22T18:16:37.846Z,14.23
2018-01-22T18:19:05.968Z,10.53
2018-01-22T18:21:34.057Z,9.10
2018-01-22T18:24:02.171Z,10.60
2018-01-22T18:26:33.452Z,9.43
2018-01-22T18:29:01.571Z,9.23
2018-01-22T18:31:31.647Z,8.93
2018-01-22T18:33:59.738Z,11.10
2018-01-22T18:36:27.851Z,8.47
2018-01-22T18:39:02.708Z,10.37
2018-01-22T18:41:32.740Z,7.97
2018-01-22T18:44:00.833Z,10.70
2018-01-22T18:46:28.937Z,11.33
2018-01-22T18:48:58.991Z,9.37
2018-01-22T18:51:27.121Z,8.37
2018-01-22T18:53:55.225Z,7.83
2018-01-22T18:56:23.333Z,7.37
2018-01-22T18:58:51.435Z,8.40
2018-01-22T19:01:19.548Z,8.67
2018-01-22T19:03:47.637Z,11.43
2018-01-22T19:06:15.755Z,10.47
2018-01-22T19:08:47.650Z,12.90
2018-01-22T19:11:15.759Z,9.50
2018-01-22T19:13:50.622Z,10.80
2018-01-22T19:16:19.645Z,11.40
2018-01-22T19:18:49.696Z,9.03
2018-01-22T19:21:21.426Z,10.97
2018-01-22T19:23:49.535Z,9.97
2018-01-22T19:26:17.660Z,11.00
2018-01-22T19:28:47.682Z,10.27
2018-01-22T19:31:15.789Z,13.53
2018-01-22T19:33:48.136Z,13.20
2018-01-22T19:36:16.265Z,13.17
2018-01-22T19:38:44.376Z,12.93
2018-01-22T19:41:12.528Z,11.83
2018-01-22T19:43:41.481Z,13.43
2018-01-22T19:46:09.589Z,11.17
2018-01-22T19:48:39.656Z,8.77
2018-01-22T19:51:12.012Z,9.77
2018-01-22T19:53:40.140Z,10.43
2018-01-22T19:56:29.599Z,9.53
2018-01-22T19:59:02.564Z,10.27
2018-01-22T20:01:30.676Z,10.17
2018-01-22T20:04:06.901Z,8.97
2018-01-22T20:06:35.021Z,8.97
2018-01-22T20:09:07.056Z,9.63
2018-01-22T20:11:40.207Z,8.83
2018-01-22T20:14:08.313Z,10.20
2018-01-22T20:16:40.136Z,8.13
2018-01-22T20:19:08.239Z,8.33
2018-01-22T20:21:36.340Z,8.37
2018-01-22T20:24:17.855Z,9.63
2018-01-22T20:26:51.773Z,9.70
2018-01-22T20:29:19.882Z,7.97
2018-01-22T20:31:47.992Z,8.57
2018-01-22T20:34:19.689Z,9.23
2018-01-22T20:36:47.796Z,9.47
2018-01-22T20:39:15.911Z,9.13
2018-01-22T20:41:44.009Z,8.60
2018-01-22T20:44:15.442Z,9.00
2018-01-22T20:46:43.608Z,10.07
2018-01-22T20:49:11.728Z,9.20
2018-01-22T20:51:39.837Z,8.30
2018-01-22T20:54:07.944Z,9.63
2018-01-22T20:56:36.068Z,10.03
2018-01-22T20:59:04.159Z,9.63
2018-01-22T21:01:32.261Z,9.67
2018-01-22T21:04:23.506Z,10.57
2018-01-22T21:06:51.621Z,9.43
2018-01-22T21:09:21.672Z,9.07
2018-01-22T21:11:49.769Z,8.80
2018-01-22T21:14:17.885Z,9.53
2018-01-22T21:16:45.970Z,8.97
2018-01-22T21:19:14.096Z,8.67
2018-01-22T21:21:42.185Z,10.17
2018-01-22T21:24:10.282Z,8.77
2018-01-22T21:26:38.396Z,8.27
2018-01-22T21:29:06.486Z,8.47
2018-01-22T21:31:38.214Z,9.73
2018-01-22T21:34:06.324Z,8.73
2018-01-22T21:36:34.445Z,8.40
2018-01-22T21:39:02.549Z,8.80
2018-01-22T21:41:30.660Z,8.50
2018-01-22T21:43:59.676Z,9.20
2018-01-22T21:46:27.758Z,8.43
2018-01-22T21:48:55.875Z,9.83
2018-01-22T21:51:23.974Z,9.50
2018-01-22T21:53:52.065Z,9.60
2018-01-22T21:56:20.191Z,9.23
2018-01-22T21:58:52.000Z,9.07
2018-01-22T22:01:28.335Z,8.70
2018-01-22T22:03:56.441Z,8.57
2018-01-22T22:06:24.570Z,8.13
2018-01-22T22:08:52.678Z,8.73
2018-01-22T22:11:20.784Z,8.20
2018-01-22T22:13:48.882Z,7.93
2018-01-22T22:16:31.338Z,7.40
2018-01-22T22:18:59.455Z,7.43
2018-01-22T22:21:27.573Z,7.53
2018-01-22T22:23:55.771Z,7.17
2018-01-22T22:26:25.895Z,7.77
2018-01-22T22:28:53.993Z,8.17
2018-01-22T22:31:22.097Z,7.93
2018-01-22T22:33:50.239Z,7.67
2018-01-22T22:36:18.337Z,7.77
2018-01-22T22:38:46.447Z,7.37
2018-01-22T22:41:14.556Z,7.27
2018-01-22T22:43:45.796Z,7.40
2018-01-22T22:46:17.433Z,7.87
2018-01-22T22:48:45.547Z,6.73
2018-01-22T22:51:37.433Z,7.40
2018-01-22T22:54:05.545Z,8.30
2018-01-22T22:56:33.667Z,8.30
2018-01-22T22:59:01.766Z,8.53
2018-01-22T23:01:29.871Z,7.57
2018-01-22T23:03:57.975Z,8.50
2018-01-22T23:06:26.084Z,7.17
2018-01-22T23:08:54.182Z,6.90
2018-01-22T23:11:29.948Z,8.47
2018-01-22T23:14:08.672Z,6.90
2018-01-22T23:16:36.826Z,6.97
2018-01-22T23:19:16.150Z,7.27
2018-01-22T23:21:44.259Z,6.37
2018-01-22T23:24:12.345Z,7.10
2018-01-22T23:26:40.460Z,6.60
2018-01-22T23:29:08.569Z,7.13
2018-01-22T23:31:39.939Z,6.97
2018-01-22T23:34:08.085Z,6.80
2018-01-22T23:36:38.159Z,7.60
2018-01-22T23:39:06.267Z,6.70
2018-01-22T23:41:34.363Z,7.37
2018-01-22T23:44:02.477Z,6.97
2018-01-22T23:46:30.565Z,6.73
2018-01-22T23:48:58.670Z,6.97
2018-01-22T23:51:26.766Z,6.60
2018-01-22T23:53:54.858Z,7.60
2018-01-22T23:56:22.976Z,6.77
2018-01-22T23:58:51.084Z,7.03
